createdAt,value
2022-10-29T00:00:57.627Z,99.90
2022-10-29T00:03:26.206Z,99.90
2022-10-29T00:06:01.234Z,99.90
2022-10-29T00:08:30.315Z,99.90
2022-10-29T00:11:06.847Z,99.90
2022-10-29T00:13:36.648Z,99.90
2022-10-29T00:16:09.628Z,99.90
2022-10-29T00:21:09.615Z,99.90
2022-10-29T00:23:37.713Z,99.90
2022-10-29T00:26:06.458Z,99.90
2022-10-29T00:28:34.927Z,99.90
2022-10-29T00:31:07.222Z,99.90
2022-10-29T00:33:35.682Z,99.90
2022-10-29T00:36:08.067Z,99.90
2022-10-29T00:38:36.956Z,99.90
2022-10-29T00:41:07.051Z,99.90
2022-10-29T00:43:36.782Z,99.90
2022-10-29T00:46:09.049Z,99.90
2022-10-29T00:48:42.139Z,99.90
2022-10-29T00:51:13.588Z,99.90
2022-10-29T00:53:47.462Z,99.90
2022-10-29T00:56:16.271Z,99.90
2022-10-29T00:58:45.528Z,99.90
2022-10-29T01:01:14.017Z,99.90
2022-10-29T01:03:42.228Z,99.90
2022-10-29T01:06:12.114Z,99.90
2022-10-29T01:08:40.259Z,99.90
2022-10-29T01:11:19.293Z,99.90
2022-10-29T01:13:59.223Z,99.90
2022-10-29T01:16:35.362Z,99.90
2022-10-29T01:19:14.088Z,99.90
2022-10-29T01:21:47.056Z,99.90
2022-10-29T01:25:00.710Z,99.90
2022-10-29T01:27:52.758Z,99.90
2022-10-29T01:30:26.720Z,99.90
2022-10-29T01:33:12.522Z,99.90
2022-10-29T01:35:50.813Z,99.90
2022-10-29T01:38:33.206Z,99.90
2022-10-29T01:41:12.188Z,99.90
2022-10-29T01:43:46.788Z,99.90
2022-10-29T01:46:20.864Z,99.90
2022-10-29T01:48:55.388Z,99.90
2022-10-29T01:51:26.348Z,99.90
2022-10-29T01:53:55.267Z,99.90
2022-10-29T01:56:23.350Z,99.90
2022-10-29T01:58:54.789Z,99.90
2022-10-29T02:01:38.165Z,99.90
2022-10-29T02:04:26.268Z,99.90
2022-10-29T02:07:01.645Z,99.90
2022-10-29T02:09:35.730Z,99.90
2022-10-29T02:12:12.177Z,99.90
2022-10-29T02:14:46.684Z,99.90
2022-10-29T02:17:14.943Z,99.90
2022-10-29T02:19:44.779Z,99.90
2022-10-29T02:22:12.950Z,99.90
2022-10-29T02:24:41.115Z,99.90
2022-10-29T02:27:09.279Z,99.90
2022-10-29T02:32:06.659Z,99.90
2022-10-29T02:34:34.894Z,99.90
2022-10-29T02:37:04.492Z,99.90
2022-10-29T02:42:01.256Z,99.90
2022-10-29T02:44:30.724Z,99.90
2022-10-29T02:49:27.455Z,99.90
2022-10-29T02:54:25.657Z,99.90
2022-10-29T03:01:51.036Z,99.90
2022-10-29T03:06:47.907Z,99.90
2022-10-29T03:11:46.005Z,99.90
2022-10-29T03:14:14.440Z,99.90
2022-10-29T03:19:11.346Z,99.90
2022-10-29T03:24:08.370Z,99.90
2022-10-29T03:29:06.268Z,99.90
2022-10-29T03:31:34.506Z,99.90
2022-10-29T03:34:02.781Z,99.90
2022-10-29T03:36:30.952Z,99.90
2022-10-29T03:38:59.073Z,99.90
2022-10-29T03:41:27.239Z,99.90
2022-10-29T03:46:24.880Z,99.90
2022-10-29T03:48:52.973Z,99.90
2022-10-29T03:51:21.152Z,99.90
2022-10-29T03:53:49.328Z,99.90
2022-10-29T03:56:17.614Z,99.90
2022-10-29T03:58:45.750Z,99.90
2022-10-29T04:03:44.248Z,99.90
2022-10-29T04:06:13.947Z,99.90
2022-10-29T04:08:42.817Z,99.90
2022-10-29T04:11:12.613Z,99.90
2022-10-29T04:29:33.135Z,99.90
2022-10-29T04:34:29.794Z,99.90
2022-10-29T04:36:59.397Z,99.90
2022-10-29T04:39:27.586Z,99.90
2022-10-29T04:41:55.656Z,99.90
2022-10-29T04:46:52.301Z,99.90
2022-10-29T04:51:48.964Z,99.90
2022-10-29T04:54:18.568Z,99.90
2022-10-29T05:01:43.751Z,99.90
2022-10-29T05:04:11.875Z,99.90
2022-10-29T05:09:08.567Z,99.90
2022-10-29T05:11:38.165Z,99.90
2022-10-29T05:14:06.392Z,99.90
2022-10-29T05:19:03.825Z,99.90
2022-10-29T05:21:32.058Z,99.90
2022-10-29T05:26:32.567Z,99.90
2022-10-29T05:29:02.195Z,99.90
2022-10-29T05:33:59.239Z,99.90
2022-10-29T05:38:55.988Z,99.90
2022-10-29T05:46:22.397Z,99.90
2022-10-29T05:48:50.680Z,99.90
2022-10-29T05:56:15.811Z,99.90
2022-10-29T06:03:42.841Z,99.90
2022-10-29T06:06:11.111Z,99.90
2022-10-29T06:11:07.828Z,99.90
2022-10-29T06:13:36.116Z,99.90
2022-10-29T06:16:04.379Z,99.90
2022-10-29T06:21:02.661Z,99.90
2022-10-29T06:23:30.932Z,99.90
2022-10-29T06:26:00.913Z,99.90
2022-10-29T06:36:03.088Z,99.90
2022-10-29T06:41:00.207Z,99.90
2022-10-29T06:43:28.915Z,99.90
2022-10-29T06:50:53.992Z,99.90
2022-10-29T06:53:23.489Z,99.90
2022-10-29T06:55:51.673Z,99.90
2022-10-29T06:58:21.271Z,99.90
2022-10-29T07:00:50.381Z,99.90
2022-10-29T07:03:20.142Z,99.90
2022-10-29T07:05:48.715Z,99.90
2022-10-29T07:10:46.611Z,99.90
2022-10-29T07:13:14.886Z,99.90
2022-10-29T07:18:12.887Z,99.90
2022-10-29T07:20:43.175Z,99.90
2022-10-29T07:23:12.150Z,99.90
2022-10-29T07:25:41.305Z,99.90
2022-10-29T07:28:14.340Z,99.90
2022-10-29T07:30:42.740Z,99.90
2022-10-29T07:33:11.356Z,99.90
2022-10-29T07:35:39.538Z,99.90
2022-10-29T07:38:10.940Z,99.90
2022-10-29T07:45:38.602Z,99.90
2022-10-29T07:48:08.812Z,99.90
2022-10-29T07:50:38.510Z,99.90
2022-10-29T07:53:08.043Z,99.90
2022-10-29T07:55:36.556Z,99.90
2022-10-29T07:58:06.630Z,99.90
2022-10-29T08:00:37.974Z,99.90
2022-10-29T08:03:07.284Z,99.90
2022-10-29T08:10:33.969Z,99.90
2022-10-29T08:13:04.046Z,99.90
2022-10-29T08:15:34.230Z,99.90
2022-10-29T08:18:05.288Z,99.90
2022-10-29T08:20:33.546Z,99.90
2022-10-29T08:23:01.982Z,99.90
2022-10-29T08:25:30.869Z,99.90
2022-10-29T08:28:03.520Z,99.90
2022-10-29T08:30:32.936Z,99.90
2022-10-29T08:33:01.671Z,99.90
2022-10-29T08:35:31.847Z,99.90
2022-10-29T08:38:01.994Z,99.90
2022-10-29T08:40:32.685Z,99.90
2022-10-29T08:43:30.184Z,99.90
2022-10-29T08:45:59.237Z,99.90
2022-10-29T08:48:36.420Z,99.90
2022-10-29T08:51:13.522Z,99.90
2022-10-29T08:53:47.657Z,99.90
2022-10-29T08:56:23.222Z,99.90
2022-10-29T08:58:58.300Z,99.90
2022-10-29T09:01:26.707Z,99.90
2022-10-29T09:03:56.363Z,99.90
2022-10-29T09:06:38.069Z,99.90
2022-10-29T09:09:27.706Z,99.90
2022-10-29T09:12:22.946Z,99.90
2022-10-29T09:15:10.765Z,99.90
2022-10-29T09:17:47.959Z,99.90
2022-10-29T09:20:24.789Z,99.90
2022-10-29T09:23:05.859Z,99.90
2022-10-29T09:25:42.858Z,99.90
2022-10-29T09:28:26.885Z,99.90
2022-10-29T09:31:04.736Z,99.90
2022-10-29T09:33:33.973Z,99.90
2022-10-29T09:36:03.717Z,99.90
2022-10-29T09:38:35.883Z,99.90
2022-10-29T09:41:05.767Z,99.90
2022-10-29T09:43:44.503Z,99.90
2022-10-29T09:46:23.288Z,99.90
2022-10-29T09:48:58.522Z,99.90
2022-10-29T09:51:37.739Z,99.90
2022-10-29T09:54:07.526Z,99.90
2022-10-29T09:56:35.796Z,99.90
2022-10-29T09:59:13.216Z,99.90
2022-10-29T10:01:41.636Z,99.90
2022-10-29T10:04:18.758Z,99.90
2022-10-29T10:07:03.056Z,99.90
2022-10-29T10:09:52.382Z,99.90
2022-10-29T10:12:22.156Z,99.90
2022-10-29T10:14:50.823Z,98.90
2022-10-29T10:17:19.077Z,98.60
2022-10-29T10:19:48.960Z,95.90
2022-10-29T10:22:22.845Z,95.10
2022-10-29T10:24:52.684Z,93.40
2022-10-29T10:27:31.091Z,92.50
2022-10-29T10:30:15.997Z,92.90
2022-10-29T10:32:44.347Z,91.90
2022-10-29T10:35:30.104Z,92.90
2022-10-29T10:38:00.341Z,93.80
2022-10-29T10:40:30.361Z,93.00
2022-10-29T10:42:59.002Z,92.50
2022-10-29T10:45:34.641Z,93.80
2022-10-29T10:48:03.134Z,97.10
2022-10-29T10:50:33.697Z,97.40
2022-10-29T10:53:04.749Z,99.50
2022-10-29T10:55:38.916Z,99.50
2022-10-29T10:58:13.032Z,98.10
2022-10-29T11:00:44.980Z,97.90
2022-10-29T11:03:19.536Z,98.00
2022-10-29T11:05:57.385Z,99.50
2022-10-29T11:08:28.637Z,98.40
2022-10-29T11:11:02.679Z,97.80
2022-10-29T11:13:33.925Z,98.20
2022-10-29T11:16:09.345Z,98.50
2022-10-29T11:18:42.288Z,99.30
2022-10-29T11:21:17.656Z,99.80
2022-10-29T11:23:55.589Z,99.80
2022-10-29T11:26:32.762Z,99.90
2022-10-29T11:29:13.238Z,99.90
2022-10-29T11:31:48.443Z,99.90
2022-10-29T11:34:22.924Z,99.90
2022-10-29T11:36:57.787Z,99.90
2022-10-29T11:39:32.968Z,99.90
2022-10-29T11:42:03.144Z,99.90
2022-10-29T11:44:38.650Z,99.90
2022-10-29T11:47:22.251Z,99.90
2022-10-29T11:50:07.608Z,99.90
2022-10-29T11:52:45.785Z,99.90
2022-10-29T11:55:24.674Z,99.90
2022-10-29T11:58:00.146Z,99.90
2022-10-29T12:00:32.455Z,99.90
2022-10-29T12:03:23.075Z,99.90
2022-10-29T12:05:59.857Z,99.90
2022-10-29T12:08:47.360Z,99.90
2022-10-29T12:11:24.019Z,98.80
2022-10-29T12:14:02.518Z,97.50
2022-10-29T12:16:41.113Z,95.70
2022-10-29T12:19:20.992Z,95.90
2022-10-29T12:21:55.700Z,97.10
2022-10-29T12:24:35.350Z,94.60
2022-10-29T12:27:11.151Z,94.60
2022-10-29T12:29:47.973Z,92.50
2022-10-29T12:32:22.701Z,93.20
2022-10-29T12:34:56.910Z,92.30
2022-10-29T12:37:35.606Z,90.70
2022-10-29T12:40:14.060Z,90.90
2022-10-29T12:42:42.971Z,88.40
2022-10-29T12:45:27.131Z,89.10
2022-10-29T12:48:04.462Z,90.40
2022-10-29T12:50:46.356Z,92.00
2022-10-29T12:53:25.146Z,88.60
2022-10-29T12:55:54.216Z,87.20
2022-10-29T12:58:52.934Z,87.30
2022-10-29T13:04:36.362Z,90.40
2022-10-29T13:07:06.866Z,89.90
2022-10-29T13:09:36.394Z,88.30
2022-10-29T13:12:06.803Z,90.10
2022-10-29T13:14:40.183Z,90.90
2022-10-29T13:17:29.778Z,89.60
2022-10-29T13:20:00.392Z,90.40
2022-10-29T13:22:57.808Z,91.40
2022-10-29T13:25:50.662Z,91.40
2022-10-29T13:28:48.489Z,90.30
2022-10-29T13:32:04.568Z,92.10
2022-10-29T13:34:57.171Z,91.90
2022-10-29T13:38:11.276Z,92.40
2022-10-29T13:40:58.901Z,92.00
2022-10-29T13:43:27.319Z,94.00
2022-10-29T13:46:08.166Z,92.00
2022-10-29T13:48:38.514Z,92.50
2022-10-29T13:51:11.452Z,93.50
2022-10-29T13:53:45.891Z,93.90
2022-10-29T13:56:21.546Z,93.40
2022-10-29T13:58:52.373Z,93.70
2022-10-29T14:01:22.777Z,93.70
2022-10-29T14:04:04.498Z,94.70
2022-10-29T14:06:38.582Z,94.20
2022-10-29T14:09:16.791Z,95.00
2022-10-29T14:11:51.345Z,94.80
2022-10-29T14:14:29.554Z,95.20
2022-10-29T14:17:11.977Z,94.90
2022-10-29T14:19:48.287Z,94.30
2022-10-29T14:22:36.743Z,93.90
2022-10-29T14:25:27.112Z,95.70
2022-10-29T14:28:17.388Z,95.50
2022-10-29T14:30:46.640Z,97.20
2022-10-29T14:33:25.386Z,97.40
2022-10-29T14:35:58.237Z,97.70
2022-10-29T14:38:35.296Z,98.90
2022-10-29T14:41:03.721Z,98.60
2022-10-29T14:43:32.220Z,99.90
2022-10-29T14:46:20.054Z,99.90
2022-10-29T14:48:57.473Z,99.90
2022-10-29T14:51:26.779Z,99.90
2022-10-29T14:54:03.325Z,99.90
2022-10-29T14:56:38.145Z,99.90
2022-10-29T14:59:14.614Z,99.90
2022-10-29T15:01:56.904Z,99.90
2022-10-29T15:04:27.667Z,99.90
2022-10-29T15:07:15.748Z,99.90
2022-10-29T15:09:47.221Z,99.90
2022-10-29T15:12:21.449Z,99.90
2022-10-29T15:14:51.248Z,99.90
2022-10-29T15:17:23.483Z,99.90
2022-10-29T15:19:55.220Z,99.90
2022-10-29T15:22:28.442Z,99.90
2022-10-29T15:24:58.319Z,99.90
2022-10-29T15:27:27.632Z,99.90
2022-10-29T15:32:26.223Z,99.90
2022-10-29T15:34:59.185Z,99.90
2022-10-29T15:37:42.846Z,99.90
2022-10-29T15:40:15.045Z,99.90
2022-10-29T15:45:20.662Z,99.90
2022-10-29T15:47:49.820Z,99.90
2022-10-29T15:50:20.549Z,99.90
2022-10-29T15:52:53.668Z,99.90
2022-10-29T15:55:27.324Z,99.90
2022-10-29T15:58:01.831Z,99.90
2022-10-29T16:00:31.037Z,99.90
2022-10-29T16:03:07.547Z,99.90
2022-10-29T16:05:35.780Z,99.90
2022-10-29T16:08:04.676Z,99.90
2022-10-29T16:10:36.050Z,99.90
2022-10-29T16:13:04.258Z,99.90
2022-10-29T16:15:32.603Z,99.90
2022-10-29T16:18:00.803Z,99.90
2022-10-29T16:20:28.997Z,99.90
2022-10-29T16:22:57.126Z,99.90
2022-10-29T16:25:28.319Z,99.90
2022-10-29T16:27:58.635Z,99.90
2022-10-29T16:32:56.570Z,99.90
2022-10-29T16:35:26.804Z,99.90
2022-10-29T16:37:56.641Z,99.90
2022-10-29T16:40:27.626Z,99.90
2022-10-29T16:42:58.800Z,99.90
2022-10-29T16:45:29.924Z,99.90
2022-10-29T16:47:59.440Z,99.90
2022-10-29T16:50:31.305Z,99.90
2022-10-29T16:53:01.005Z,99.90
2022-10-29T16:55:30.458Z,99.90
2022-10-29T16:58:00.323Z,99.90
2022-10-29T17:00:32.154Z,99.90
2022-10-29T17:03:04.854Z,99.90
2022-10-29T17:05:38.829Z,99.90
2022-10-29T17:08:07.661Z,99.90
2022-10-29T17:10:36.133Z,99.90
2022-10-29T17:13:07.138Z,99.90
2022-10-29T17:20:32.232Z,99.90
2022-10-29T17:23:00.317Z,99.90
2022-10-29T17:27:57.082Z,99.90
2022-10-29T17:30:26.805Z,99.90
2022-10-29T17:35:23.772Z,99.90
2022-10-29T17:37:51.957Z,99.90
2022-10-29T17:40:20.409Z,99.90
2022-10-29T17:42:48.476Z,99.90
2022-10-29T17:45:20.517Z,99.90
2022-10-29T17:47:50.240Z,99.90
2022-10-29T17:50:18.565Z,99.90
2022-10-29T17:52:46.725Z,99.90
2022-10-29T17:55:15.112Z,99.90
2022-10-29T18:00:15.012Z,99.90
2022-10-29T18:02:51.946Z,99.90
2022-10-29T18:05:20.679Z,99.90
2022-10-29T18:07:48.793Z,99.90
2022-10-29T18:10:17.281Z,99.90
2022-10-29T18:12:47.408Z,99.90
2022-10-29T18:15:15.907Z,99.90
2022-10-29T18:17:46.952Z,99.90
2022-10-29T18:20:17.394Z,99.90
2022-10-29T18:22:45.594Z,99.90
2022-10-29T18:25:13.697Z,99.90
2022-10-29T18:27:41.918Z,99.90
2022-10-29T18:30:11.115Z,99.90
2022-10-29T18:32:39.237Z,99.90
2022-10-29T18:35:08.457Z,99.90
2022-10-29T18:37:39.634Z,99.90
2022-10-29T18:40:08.760Z,99.90
2022-10-29T18:45:05.973Z,99.90
2022-10-29T18:47:34.336Z,99.90
2022-10-29T18:50:02.448Z,99.90
2022-10-29T18:52:30.753Z,99.90
2022-10-29T18:55:00.714Z,99.90
2022-10-29T18:57:29.003Z,99.90
2022-10-29T18:59:57.094Z,99.90
2022-10-29T19:02:25.222Z,99.90
2022-10-29T19:07:22.177Z,99.90
2022-10-29T19:09:50.351Z,99.90
2022-10-29T19:12:20.018Z,99.90
2022-10-29T19:14:48.195Z,99.90
2022-10-29T19:17:16.316Z,99.90
2022-10-29T19:19:45.684Z,99.90
2022-10-29T19:22:14.142Z,99.90
2022-10-29T19:24:42.258Z,99.90
2022-10-29T19:27:10.318Z,99.90
2022-10-29T19:29:39.766Z,99.90
2022-10-29T19:32:07.865Z,99.90
2022-10-29T19:34:36.143Z,99.90
2022-10-29T19:37:04.535Z,99.90
2022-10-29T19:42:01.432Z,99.90
2022-10-29T19:44:29.864Z,99.90
2022-10-29T19:46:59.505Z,99.90
2022-10-29T19:59:22.731Z,99.90
2022-10-29T20:01:50.962Z,99.90
2022-10-29T20:04:20.755Z,99.90
2022-10-29T20:06:49.497Z,99.90
2022-10-29T20:11:46.123Z,99.90
2022-10-29T20:14:14.353Z,99.90
2022-10-29T20:19:12.099Z,99.90
2022-10-29T20:21:41.570Z,99.90
2022-10-29T20:24:09.868Z,99.90
2022-10-29T20:31:48.771Z,99.90
2022-10-29T20:36:47.718Z,99.90
2022-10-29T20:39:16.235Z,99.90
2022-10-29T20:41:44.729Z,99.90
2022-10-29T20:44:13.821Z,99.90
2022-10-29T20:49:11.867Z,99.90
2022-10-29T20:51:40.039Z,99.90
2022-10-29T20:54:10.567Z,99.90
2022-10-29T20:59:07.367Z,99.90
2022-10-29T21:04:04.270Z,99.90
2022-10-29T21:06:32.491Z,99.90
2022-10-29T21:09:00.760Z,99.90
2022-10-29T21:11:30.345Z,99.90
2022-10-29T21:13:58.486Z,99.90
2022-10-29T21:16:27.910Z,99.90
2022-10-29T21:18:58.067Z,99.90
2022-10-29T21:21:26.883Z,99.90
2022-10-29T21:26:25.402Z,99.90
2022-10-29T21:28:55.845Z,99.90
2022-10-29T21:31:25.137Z,99.90
2022-10-29T21:33:53.908Z,99.90
2022-10-29T21:36:22.788Z,99.90
2022-10-29T21:38:51.040Z,99.90
2022-10-29T21:41:19.310Z,99.90
2022-10-29T21:46:17.378Z,99.90
2022-10-29T21:48:45.597Z,99.90
2022-10-29T21:51:15.295Z,99.90
2022-10-29T21:53:43.831Z,99.90
2022-10-29T21:56:13.984Z,99.90
2022-10-29T22:01:12.537Z,99.90
2022-10-29T22:03:43.592Z,99.90
2022-10-29T22:06:14.294Z,99.90
2022-10-29T22:08:42.776Z,99.90
2022-10-29T22:11:11.594Z,99.90
2022-10-29T22:13:40.182Z,99.90
2022-10-29T22:16:09.648Z,99.90
2022-10-29T22:18:38.972Z,99.90
2022-10-29T22:21:11.776Z,99.90
2022-10-29T22:23:44.094Z,99.90
2022-10-29T22:26:12.564Z,99.90
2022-10-29T22:28:40.669Z,99.90
2022-10-29T22:31:09.069Z,99.90
2022-10-29T22:33:37.269Z,99.90
2022-10-29T22:36:10.327Z,99.90
2022-10-29T22:38:38.859Z,99.90
2022-10-29T22:41:08.320Z,99.90
2022-10-29T22:46:06.429Z,99.90
2022-10-29T22:51:05.071Z,99.90
2022-10-29T22:53:35.345Z,99.90
2022-10-29T22:56:03.915Z,99.90
2022-10-29T22:58:32.132Z,99.90
2022-10-29T23:01:05.709Z,99.90
2022-10-29T23:06:04.298Z,99.90
2022-10-29T23:08:35.586Z,99.90
2022-10-29T23:11:07.929Z,99.90
2022-10-29T23:13:36.318Z,99.90
2022-10-29T23:16:04.766Z,99.90
2022-10-29T23:21:02.543Z,99.90
2022-10-29T23:26:01.856Z,99.90
2022-10-29T23:30:59.971Z,99.90
2022-10-29T23:35:56.801Z,99.90
2022-10-29T23:43:23.627Z,99.90
2022-10-29T23:53:18.047Z,99.90
2022-10-29T23:55:47.035Z,99.90
